CFA544 KCAE-KCHS
Flight info
| Callsign | CFA544 |
|---|---|
| Flight time | 0h 22m |
| Altitude | 11000 |
| Route | TRTLS OSPRI7 |
| Aircraft | B739/M-V/N |
Departure
| Time | 2026-04-21 20:15 |
|---|---|
| Airport | Columbia Metropolitan Airport (KCAE) |
Arrival
| Time | 2026-04-21 20:37 |
|---|---|
| Airport | Charleston International Airport (KCHS) |
| Time | Latitude | Longitude | Altitude | Speed | Heading |
|---|---|---|---|---|---|
| 2026-04-21 20:03 | 33.94477 | -81.12606 | 227 ft | 0 kts | 52° |
| 2026-04-21 20:07 | 33.94473 | -81.12613 | 263 ft | 1 kts | 52° |
| 2026-04-21 20:07 | 33.94468 | -81.12621 | 264 ft | 1 kts | 52° |
| 2026-04-21 20:08 | 33.94460 | -81.12634 | 229 ft | 3 kts | 52° |
| 2026-04-21 20:08 | 33.94446 | -81.12655 | 228 ft | 3 kts | 52° |
| 2026-04-21 20:08 | 33.94433 | -81.12676 | 229 ft | 3 kts | 52° |
| 2026-04-21 20:08 | 33.94419 | -81.12697 | 228 ft | 3 kts | 32° |
| 2026-04-21 20:09 | 33.94398 | -81.12701 | 228 ft | 3 kts | 347° |
| 2026-04-21 20:09 | 33.94380 | -81.12689 | 229 ft | 3 kts | 302° |
| 2026-04-21 20:09 | 33.94378 | -81.12687 | 229 ft | 3 kts | 285° |
| 2026-04-21 20:09 | 33.94380 | -81.12696 | 230 ft | 0 kts | 286° |
| 2026-04-21 20:12 | 33.94395 | -81.12764 | 227 ft | 13 kts | 284° |
| 2026-04-21 20:12 | 33.94418 | -81.12872 | 229 ft | 13 kts | 284° |
| 2026-04-21 20:12 | 33.94441 | -81.12977 | 227 ft | 13 kts | 284° |
| 2026-04-21 20:12 | 33.94465 | -81.13090 | 227 ft | 16 kts | 285° |
| 2026-04-21 20:13 | 33.94494 | -81.13224 | 227 ft | 16 kts | 284° |
| 2026-04-21 20:13 | 33.94523 | -81.13355 | 227 ft | 16 kts | 285° |
| 2026-04-21 20:13 | 33.94551 | -81.13479 | 227 ft | 15 kts | 285° |
| 2026-04-21 20:13 | 33.94570 | -81.13601 | 227 ft | 14 kts | 256° |
| 2026-04-21 20:14 | 33.94484 | -81.13650 | 227 ft | 14 kts | 193° |
| 2026-04-21 20:14 | 33.94394 | -81.13653 | 228 ft | 13 kts | 135° |
| 2026-04-21 20:14 | 33.94375 | -81.13592 | 228 ft | 0 kts | 100° |
| 2026-04-21 20:14 | 33.94323 | -81.13351 | 227 ft | 69 kts | 105° |
| 2026-04-21 20:15 | 33.94144 | -81.12526 | 226 ft | 134 kts | 104° |
| 2026-04-21 20:15 | 33.93846 | -81.11315 | 546 ft | 156 kts | 106° |
| 2026-04-21 20:15 | 33.93556 | -81.10030 | 1234 ft | 162 kts | 103° |
| 2026-04-21 20:15 | 33.93258 | -81.08593 | 1790 ft | 197 kts | 103° |
| 2026-04-21 20:16 | 33.92845 | -81.06887 | 2096 ft | 226 kts | 114° |
| 2026-04-21 20:16 | 33.91782 | -81.05365 | 2348 ft | 254 kts | 146° |
| 2026-04-21 20:16 | 33.90147 | -81.04666 | 2796 ft | 259 kts | 175° |
| 2026-04-21 20:16 | 33.88332 | -81.05004 | 3360 ft | 266 kts | 198° |
| 2026-04-21 20:17 | 33.86587 | -81.05828 | 3857 ft | 271 kts | 202° |
| 2026-04-21 20:17 | 33.84842 | -81.06706 | 4380 ft | 273 kts | 202° |
| 2026-04-21 20:17 | 33.83088 | -81.07593 | 4875 ft | 274 kts | 202° |
| 2026-04-21 20:17 | 33.81325 | -81.08488 | 5389 ft | 277 kts | 202° |
| 2026-04-21 20:18 | 33.80140 | -81.09081 | 5717 ft | 280 kts | 202° |
| 2026-04-21 20:18 | 33.77729 | -81.10274 | 6400 ft | 285 kts | 202° |
| 2026-04-21 20:18 | 33.75821 | -81.10950 | 6901 ft | 288 kts | 181° |
| 2026-04-21 20:18 | 33.73870 | -81.10566 | 7449 ft | 285 kts | 158° |
| 2026-04-21 20:19 | 33.72145 | -81.09419 | 7990 ft | 284 kts | 143° |
| 2026-04-21 20:19 | 33.70513 | -81.08026 | 8515 ft | 293 kts | 142° |
| 2026-04-21 20:19 | 33.68855 | -81.06563 | 8961 ft | 295 kts | 142° |
| 2026-04-21 20:19 | 33.67203 | -81.05102 | 9409 ft | 296 kts | 142° |
| 2026-04-21 20:20 | 33.65534 | -81.03634 | 9878 ft | 297 kts | 142° |
| 2026-04-21 20:20 | 33.63862 | -81.02171 | 10334 ft | 298 kts | 142° |
| 2026-04-21 20:20 | 33.62176 | -81.00704 | 10769 ft | 300 kts | 142° |
| 2026-04-21 20:20 | 33.60464 | -80.99219 | 10963 ft | 306 kts | 142° |
| 2026-04-21 20:21 | 33.58733 | -80.97723 | 10972 ft | 307 kts | 143° |
| 2026-04-21 20:21 | 33.57001 | -80.96229 | 10978 ft | 306 kts | 143° |
| 2026-04-21 20:21 | 33.55298 | -80.94764 | 10992 ft | 305 kts | 143° |
| 2026-04-21 20:21 | 33.53575 | -80.93281 | 11000 ft | 304 kts | 143° |
| 2026-04-21 20:22 | 33.51854 | -80.91801 | 11001 ft | 304 kts | 143° |
| 2026-04-21 20:22 | 33.48405 | -80.88839 | 11003 ft | 305 kts | 142° |
| 2026-04-21 20:22 | 33.46678 | -80.87356 | 11005 ft | 306 kts | 142° |
| 2026-04-21 20:23 | 33.44942 | -80.85866 | 11004 ft | 307 kts | 142° |
| 2026-04-21 20:23 | 33.43190 | -80.84363 | 10820 ft | 312 kts | 142° |
| 2026-04-21 20:23 | 33.41424 | -80.82849 | 10555 ft | 312 kts | 142° |
| 2026-04-21 20:23 | 33.39666 | -80.81344 | 10293 ft | 307 kts | 142° |
| 2026-04-21 20:24 | 33.37939 | -80.79867 | 10003 ft | 303 kts | 142° |
| 2026-04-21 20:24 | 33.36237 | -80.78410 | 9712 ft | 299 kts | 142° |
| 2026-04-21 20:24 | 33.34557 | -80.76973 | 9437 ft | 296 kts | 142° |
| 2026-04-21 20:24 | 33.32908 | -80.75561 | 9149 ft | 294 kts | 142° |
| 2026-04-21 20:25 | 33.31252 | -80.74147 | 8865 ft | 291 kts | 142° |
| 2026-04-21 20:25 | 33.29607 | -80.72741 | 8576 ft | 289 kts | 142° |
| 2026-04-21 20:25 | 33.27970 | -80.71343 | 8310 ft | 289 kts | 142° |
| 2026-04-21 20:25 | 33.26331 | -80.69946 | 8042 ft | 290 kts | 142° |
| 2026-04-21 20:26 | 33.24689 | -80.68545 | 7763 ft | 289 kts | 142° |
| 2026-04-21 20:26 | 33.23218 | -80.66943 | 7461 ft | 286 kts | 121° |
| 2026-04-21 20:26 | 33.22370 | -80.64835 | 7225 ft | 280 kts | 109° |
| 2026-04-21 20:26 | 33.21649 | -80.62677 | 6968 ft | 279 kts | 109° |
| 2026-04-21 20:27 | 33.20938 | -80.60516 | 6698 ft | 278 kts | 109° |
| 2026-04-21 20:27 | 33.20237 | -80.58396 | 6442 ft | 276 kts | 109° |
| 2026-04-21 20:27 | 33.19532 | -80.56282 | 6282 ft | 271 kts | 109° |
| 2026-04-21 20:27 | 33.18837 | -80.54211 | 6132 ft | 267 kts | 110° |
| 2026-04-21 20:28 | 33.18144 | -80.52147 | 5966 ft | 267 kts | 110° |
| 2026-04-21 20:28 | 33.17448 | -80.50081 | 5825 ft | 269 kts | 110° |
| 2026-04-21 20:28 | 33.16747 | -80.48005 | 5683 ft | 270 kts | 110° |
| 2026-04-21 20:28 | 33.16044 | -80.45930 | 5518 ft | 268 kts | 111° |
| 2026-04-21 20:29 | 33.15353 | -80.43902 | 5356 ft | 260 kts | 110° |
| 2026-04-21 20:29 | 33.14683 | -80.41930 | 5215 ft | 255 kts | 110° |
| 2026-04-21 20:29 | 33.14024 | -80.39991 | 5049 ft | 254 kts | 111° |
| 2026-04-21 20:29 | 33.13547 | -80.37976 | 4879 ft | 253 kts | 92° |
| 2026-04-21 20:30 | 33.13547 | -80.35897 | 4768 ft | 249 kts | 89° |
| 2026-04-21 20:30 | 33.13554 | -80.33839 | 4583 ft | 247 kts | 89° |
| 2026-04-21 20:30 | 33.13552 | -80.31796 | 4432 ft | 245 kts | 90° |
| 2026-04-21 20:30 | 33.13539 | -80.29765 | 4280 ft | 244 kts | 90° |
| 2026-04-21 20:31 | 33.13521 | -80.27735 | 4135 ft | 244 kts | 90° |
| 2026-04-21 20:31 | 33.13502 | -80.25684 | 4032 ft | 251 kts | 90° |
| 2026-04-21 20:31 | 33.13470 | -80.23593 | 3996 ft | 250 kts | 93° |
| 2026-04-21 20:31 | 33.12950 | -80.21677 | 3976 ft | 247 kts | 127° |
| 2026-04-21 20:32 | 33.11659 | -80.20331 | 3971 ft | 250 kts | 145° |
| 2026-04-21 20:32 | 33.10230 | -80.19230 | 3987 ft | 238 kts | 146° |
| 2026-04-21 20:32 | 33.08885 | -80.18204 | 3962 ft | 221 kts | 146° |
| 2026-04-21 20:32 | 33.07631 | -80.17251 | 3784 ft | 210 kts | 145° |
| 2026-04-21 20:33 | 33.06408 | -80.16322 | 3526 ft | 206 kts | 143° |
| 2026-04-21 20:33 | 33.05211 | -80.15411 | 3259 ft | 204 kts | 142° |
| 2026-04-21 20:33 | 33.04018 | -80.14500 | 3016 ft | 201 kts | 144° |
| 2026-04-21 20:33 | 33.02866 | -80.13625 | 2751 ft | 191 kts | 144° |
| 2026-04-21 20:34 | 33.01779 | -80.12800 | 2486 ft | 180 kts | 143° |
| 2026-04-21 20:34 | 33.00732 | -80.12002 | 2244 ft | 177 kts | 142° |
| 2026-04-21 20:34 | 32.99692 | -80.11208 | 2006 ft | 182 kts | 143° |
| 2026-04-21 20:34 | 32.98627 | -80.10398 | 1756 ft | 181 kts | 144° |
| 2026-04-21 20:35 | 32.97587 | -80.09608 | 1530 ft | 176 kts | 143° |
| 2026-04-21 20:35 | 32.96548 | -80.08816 | 1298 ft | 175 kts | 143° |
| 2026-04-21 20:35 | 32.95529 | -80.08041 | 1062 ft | 168 kts | 142° |
| 2026-04-21 20:35 | 32.94612 | -80.07345 | 848 ft | 150 kts | 140° |
| 2026-04-21 20:36 | 32.93780 | -80.06717 | 589 ft | 135 kts | 142° |
| 2026-04-21 20:36 | 32.93020 | -80.06154 | 430 ft | 126 kts | 141° |
| 2026-04-21 20:36 | 32.92282 | -80.05577 | 271 ft | 126 kts | 145° |
| 2026-04-21 20:36 | 32.91548 | -80.05015 | 172 ft | 130 kts | 141° |
| 2026-04-21 20:37 | 32.90814 | -80.04439 | 61 ft | 114 kts | 144° |
| 2026-04-21 20:37 | 32.90240 | -80.04006 | 55 ft | 77 kts | 147° |
| 2026-04-21 20:37 | 32.89913 | -80.03754 | 52 ft | 35 kts | 149° |
| 2026-04-21 20:37 | 32.89726 | -80.03616 | 48 ft | 30 kts | 149° |
| 2026-04-21 20:38 | 32.89527 | -80.03584 | 45 ft | 28 kts | 182° |
| 2026-04-21 20:38 | 32.89340 | -80.03588 | 46 ft | 27 kts | 180° |
| 2026-04-21 20:38 | 32.89161 | -80.03596 | 46 ft | 16 kts | 181° |
| 2026-04-21 20:38 | 32.89078 | -80.03598 | 45 ft | 12 kts | 181° |
| 2026-04-21 20:39 | 32.88995 | -80.03605 | 44 ft | 12 kts | 188° |
| 2026-04-21 20:39 | 32.88908 | -80.03617 | 41 ft | 14 kts | 186° |
| 2026-04-21 20:39 | 32.88806 | -80.03632 | 37 ft | 16 kts | 187° |
| 2026-04-21 20:39 | 32.88698 | -80.03644 | 38 ft | 16 kts | 160° |
| 2026-04-21 20:40 | 32.88647 | -80.03537 | 37 ft | 15 kts | 113° |
| 2026-04-21 20:40 | 32.88628 | -80.03515 | 37 ft | 1 kts | 156° |
| 2026-04-21 20:40 | 32.88602 | -80.03522 | 37 ft | 5 kts | 207° |
| 2026-04-21 20:40 | 32.88583 | -80.03538 | 37 ft | 0 kts | 217° |